KSAF/SAF METAR and TAF weather

Enter ICAO airport designator
Station Type Date Time Source
KSAF METAR 2020/01/23 20:53 UTC NOAA

KSAF 232053Z 26005KT 10SM CLR 06/M03 A3011 RMK AO2 SLP183 T00611028 58019


Station Type Date Time Source
KSAF Decoded METAR 2020/01/23 20:53 UTC NOAA

SANTA FE COUNTY MUNICIPAL, NM, United States (KSAF) 35-37N 106-05W 1930M
Jan 23, 2020 - 03:53 PM EST / 2020.01.23 2053 UTC
Wind: from the W (260 degrees) at 6 MPH (5 KT):0
Visibility: 10 mile(s):0
Sky conditions: clear
Temperature: 43.0 F (6.1 C)
Dew Point: 27.0 F (-2.8 C)
Relative Humidity: 52%
Pressure (altimeter): 30.11 in. Hg (1019 hPa)
Pressure tendency: 0.06 inches (1.9 hPa) lower than three hours ago
ob: KSAF 232053Z 26005KT 10SM CLR 06/M03 A3011 RMK AO2 SLP183 T00611028 58019
cycle: 21

Station Type Date Time Source
KSAF TAF 2020/01/23 18:33 UTC NOAA

TAF KSAF 231731Z 2318/2418 35010KT P6SM SCT250
FM232000 30006KT P6SM SCT250
FM240400 36009KT P6SM FEW250
FM241000 36013KT P6SM FEW250

Example: see airport list